Time;durP1;ratioP1;P1;durP2;ratioP2;P2;SDS_P1;SDS_P2;PMS_P1;PMS_P2;Temp;Humidity;BMP_temperature;BMP_pressure;BME280_temperature;BME280_humidity;BME280_pressure;Samples;Min_cycle;Max_cycle;Signal;HPM_P1;HPM_P2
2022/01/15 00:02:05;;;;;;;3.53;2.33;;;;;;;19.00;45.74;101434.38;4968946;28;20027;-67
2022/01/15 00:04:30;;;;;;;4.10;2.88;;;;;;;19.00;45.61;101438.84;4967331;28;20062;-70
2022/01/15 00:06:56;;;;;;;5.85;2.47;;;;;;;18.99;45.62;101432.75;4968817;28;20359;-68
2022/01/15 00:09:21;;;;;;;4.30;2.35;;;;;;;18.99;45.63;101426.63;4967983;28;20889;-66
2022/01/15 00:11:47;;;;;;;3.30;2.67;;;;;;;18.98;45.60;101430.28;4969438;28;20042;-68
2022/01/15 00:14:22;;;;;;;3.33;2.20;;;;;;;18.97;45.56;101433.91;4968957;28;20078;-68
2022/01/15 00:16:57;;;;;;;2.28;1.65;;;;;;;18.95;45.47;101420.06;4965403;28;20187;-67
2022/01/15 00:19:35;;;;;;;3.70;2.20;;;;;;;18.94;45.47;101424.53;4969804;28;20785;-69
2022/01/15 00:22:01;;;;;;;3.13;2.00;;;;;;;18.93;45.51;101424.69;4967118;28;20030;-67
2022/01/15 00:24:26;;;;;;;3.30;1.90;;;;;;;18.92;45.45;101425.69;4969382;28;20042;-68
2022/01/15 00:26:52;;;;;;;3.30;1.92;;;;;;;18.92;45.38;101418.59;4968587;28;20039;-67
2022/01/15 00:29:17;;;;;;;2.60;2.08;;;;;;;18.92;45.40;101420.41;4970772;28;20042;-65
2022/01/15 00:31:43;;;;;;;2.40;1.90;;;;;;;18.88;45.33;101426.06;4964655;28;20039;-66
2022/01/15 00:34:08;;;;;;;3.75;2.55;;;;;;;18.89;45.20;101418.97;4969237;28;20065;-66
2022/01/15 00:36:33;;;;;;;2.17;1.77;;;;;;;18.87;45.17;101413.88;4969018;28;20031;-68
2022/01/15 00:38:59;;;;;;;4.47;2.33;;;;;;;18.87;44.99;101415.69;4963481;28;20062;-69
2022/01/15 00:41:26;;;;;;;2.55;2.13;;;;;;;18.86;44.89;101406.13;4969101;28;20795;-68
2022/01/15 00:43:51;;;;;;;4.05;2.72;;;;;;;18.86;44.86;101421.97;4968405;28;20034;-67
2022/01/15 00:46:16;;;;;;;2.90;2.05;;;;;;;18.84;44.82;101414.22;4963496;28;20034;-69
2022/01/15 00:48:42;;;;;;;3.13;2.00;;;;;;;18.83;44.76;101412.56;4965705;28;20162;-70
2022/01/15 00:51:07;;;;;;;2.50;2.00;;;;;;;18.82;44.92;101410.94;4969651;28;20023;-69
2022/01/15 00:53:33;;;;;;;2.78;1.70;;;;;;;18.81;44.85;101409.28;4967198;28;20665;-66
2022/01/15 00:55:58;;;;;;;1.98;1.58;;;;;;;18.81;44.75;101400.53;4966718;28;20383;-70
2022/01/15 00:58:23;;;;;;;2.00;1.65;;;;;;;18.79;44.92;101411.28;4967079;28;20040;-67
2022/01/15 01:00:49;;;;;;;4.15;2.03;;;;;;;18.76;44.72;101414.28;4967360;28;20030;-67
2022/01/15 01:03:14;;;;;;;3.10;2.00;;;;;;;18.76;44.71;101416.91;4966684;28;20085;-67
2022/01/15 01:05:40;;;;;;;3.47;1.90;;;;;;;18.75;44.77;101409.16;4957483;28;20105;-69
2022/01/15 01:08:05;;;;;;;2.35;1.98;;;;;;;18.75;44.78;101409.16;4959765;28;20500;-67
2022/01/15 01:23:36;;;;;;;3.58;2.63;;;;;;;18.68;44.68;101413.50;4966859;28;20038;-65
2022/01/15 01:26:10;;;;;;;3.45;2.25;;;;;;;18.67;44.77;101417.94;4967772;28;20114;-69
2022/01/15 01:28:41;;;;;;;3.45;2.60;;;;;;;18.66;44.63;101411.03;4967935;28;20038;-67
2022/01/15 01:31:18;;;;;;;5.32;3.25;;;;;;;18.66;44.65;101416.31;4967859;28;20041;-70
2022/01/15 01:33:48;;;;;;;4.38;3.17;;;;;;;18.66;44.61;101410.19;4968766;28;20090;-69
2022/01/15 01:41:14;;;;;;;4.75;3.28;;;;;;;18.64;44.38;101410.38;4968693;28;20026;-69
2022/01/15 01:43:45;;;;;;;4.18;2.97;;;;;;;18.63;44.48;101406.09;4967840;28;20038;-69
2022/01/15 01:46:19;;;;;;;3.92;2.63;;;;;;;18.62;44.11;101403.63;4967599;28;20100;-66
2022/01/15 01:48:46;;;;;;;4.35;2.50;;;;;;;18.61;44.13;101407.25;4967063;28;20066;-66
2022/01/15 01:51:22;;;;;;;3.45;2.22;;;;;;;18.57;43.98;101401.47;4968220;28;20035;-66
2022/01/15 01:53:49;;;;;;;5.10;3.08;;;;;;;18.58;44.19;101403.94;4966402;28;20042;-66
2022/01/15 01:56:15;;;;;;;3.60;2.42;;;;;;;18.58;44.04;101397.84;4967597;28;20038;-69
2022/01/15 01:58:40;;;;;;;5.25;3.08;;;;;;;18.57;43.99;101398.84;4965731;28;20030;-70
2022/01/15 02:01:06;;;;;;;4.03;2.70;;;;;;;18.57;43.92;101393.56;4968290;28;20038;-69
2022/01/15 02:03:31;;;;;;;3.60;2.67;;;;;;;18.56;43.92;101390.09;4967328;28;20425;-69
2022/01/15 02:05:57;;;;;;;3.50;2.42;;;;;;;18.56;43.89;101384.00;4966326;28;20070;-67
2022/01/15 02:08:23;;;;;;;4.43;2.97;;;;;;;18.56;43.82;101382.19;4966011;28;20018;-69
2022/01/15 02:10:50;;;;;;;3.67;2.80;;;;;;;18.54;43.68;101378.91;4968536;28;20074;-70
2022/01/15 02:13:15;;;;;;;4.25;2.85;;;;;;;18.55;43.67;101377.06;4965323;28;20053;-67
2022/01/15 02:15:41;;;;;;;3.92;2.65;;;;;;;18.54;43.53;101372.78;4967998;28;20026;-67
2022/01/15 02:18:06;;;;;;;4.47;2.97;;;;;;;18.54;43.61;101376.25;4966513;28;20568;-66
2022/01/15 02:25:51;;;;;;;2.83;2.33;;;;;;;18.51;43.49;101365.22;4967500;28;20094;-67
2022/01/15 02:28:18;;;;;;;4.40;2.33;;;;;;;18.52;43.36;101366.88;4965672;28;20205;-69
2022/01/15 02:30:44;;;;;;;4.25;2.28;;;;;;;18.50;43.51;101364.41;4967935;28;20105;-67
2022/01/15 02:33:09;;;;;;;2.92;2.08;;;;;;;18.50;43.39;101358.31;4966802;28;20503;-70
2022/01/15 02:35:35;;;;;;;2.90;2.33;;;;;;;18.49;43.32;101357.47;4967755;28;20430;-69
2022/01/15 02:38:09;;;;;;;2.55;2.33;;;;;;;18.47;43.22;101358.66;4965458;28;20037;-68
2022/01/15 02:40:35;;;;;;;4.93;2.42;;;;;;;18.47;43.40;101350.72;4968411;28;20062;-68
2022/01/15 02:43:07;;;;;;;3.55;2.47;;;;;;;18.45;43.12;101343.00;4966882;28;20431;-67
2022/01/15 02:45:34;;;;;;;5.13;2.67;;;;;;;18.46;43.28;101342.00;4966551;28;20125;-69
2022/01/15 02:48:18;;;;;;;5.20;2.17;;;;;;;18.43;43.20;101336.28;4966537;28;20038;-67
2022/01/15 02:50:45;;;;;;;3.28;2.33;;;;;;;18.44;43.27;101333.44;4967337;28;20068;-67
2022/01/15 02:53:12;;;;;;;3.22;2.30;;;;;;;18.43;43.21;101331.78;4963513;28;20027;-67
2022/01/15 02:55:42;;;;;;;3.65;2.60;;;;;;;18.43;43.06;101336.28;4966692;28;20142;-70
2022/01/15 02:58:08;;;;;;;3.15;2.47;;;;;;;18.41;43.32;101333.00;4965298;28;20027;-68
2022/01/15 03:00:34;;;;;;;3.78;2.60;;;;;;;18.40;43.42;101332.16;4968789;28;20525;-68
2022/01/15 03:02:59;;;;;;;3.00;1.92;;;;;;;18.39;43.33;101327.88;4967619;28;20065;-69
2022/01/15 03:05:25;;;;;;;2.88;2.20;;;;;;;18.37;43.22;101321.97;4966708;28;20041;-67
2022/01/15 03:07:50;;;;;;;5.38;2.70;;;;;;;18.38;43.28;101325.44;4965965;28;20087;-69
2022/01/15 03:10:16;;;;;;;2.97;2.13;;;;;;;18.36;43.31;101325.59;4967291;28;20431;-69
2022/01/15 03:12:41;;;;;;;3.08;2.13;;;;;;;18.36;43.24;101330.06;4969732;28;20058;-68
2022/01/15 03:15:08;;;;;;;3.30;2.33;;;;;;;18.34;43.33;101327.59;4969750;28;20027;-67
2022/01/15 03:17:34;;;;;;;3.58;2.22;;;;;;;18.35;43.31;101341.59;4969133;28;20091;-66
2022/01/15 03:20:01;;;;;;;2.25;1.88;;;;;;;18.34;43.27;101321.50;4970853;28;20673;-66
2022/01/15 03:22:27;;;;;;;3.75;2.40;;;;;;;18.33;43.20;101317.22;4970733;28;20050;-66
2022/01/15 03:24:52;;;;;;;3.85;2.90;;;;;;;18.31;43.36;101322.66;4970064;28;20106;-66
2022/01/15 03:27:21;;;;;;;3.55;2.17;;;;;;;18.30;43.27;101326.28;4969761;28;20031;-67
2022/01/15 03:29:47;;;;;;;4.00;2.30;;;;;;;18.29;43.28;101326.47;4967136;28;20031;-67
2022/01/15 03:32:12;;;;;;;3.92;2.95;;;;;;;18.27;43.34;101328.44;4970682;28;20054;-67
2022/01/15 03:34:38;;;;;;;3.78;2.95;;;;;;;18.27;43.32;101316.09;4970187;28;20027;-65
2022/01/15 03:37:03;;;;;;;3.53;2.67;;;;;;;18.26;43.23;101313.63;4971679;28;20051;-66
2022/01/15 03:39:28;;;;;;;4.28;3.20;;;;;;;18.26;43.02;101313.63;4970963;28;20039;-68
2022/01/15 03:41:54;;;;;;;2.92;2.63;;;;;;;18.26;43.23;101324.16;4969725;28;20037;-69
2022/01/15 03:44:19;;;;;;;3.08;2.75;;;;;;;18.24;43.24;101317.25;4972092;28;20513;-68
2022/01/15 03:46:45;;;;;;;3.42;2.70;;;;;;;18.23;43.34;101317.44;4972915;28;20522;-67
2022/01/15 03:49:10;;;;;;;4.00;3.25;;;;;;;18.22;43.23;101321.88;4983147;28;20042;-68
2022/01/15 03:51:36;;;;;;;3.53;2.80;;;;;;;18.22;43.25;101321.88;4970178;28;20046;-69
2022/01/15 03:54:02;;;;;;;4.85;3.15;;;;;;;18.22;43.13;101324.53;4969627;28;20139;-67
2022/01/15 03:56:27;;;;;;;4.40;3.10;;;;;;;18.22;43.01;101326.34;4970041;28;20037;-69
2022/01/15 03:58:52;;;;;;;3.92;2.85;;;;;;;18.20;43.03;101326.50;4967433;28;20046;-66
2022/01/15 04:01:18;;;;;;;3.70;3.00;;;;;;;18.19;43.18;101324.88;4965889;28;20217;-69
2022/01/15 04:03:43;;;;;;;3.72;3.08;;;;;;;18.20;43.06;101325.69;4970730;28;20034;-68
2022/01/15 04:06:09;;;;;;;5.50;3.63;;;;;;;18.18;43.05;101320.59;4968922;28;20050;-69
2022/01/15 04:08:34;;;;;;;3.83;2.97;;;;;;;18.16;43.07;101322.56;4969571;28;20061;-69
2022/01/15 04:10:59;;;;;;;5.18;3.65;;;;;;;18.16;43.07;101330.47;4967582;28;20030;-66
2022/01/15 04:13:25;;;;;;;5.05;2.75;;;;;;;18.14;43.36;101335.09;4969112;28;20034;-66
2022/01/15 04:15:52;;;;;;;5.07;2.35;;;;;;;18.13;43.31;101328.19;4968571;28;20030;-66
2022/01/15 04:18:20;;;;;;;6.53;3.00;;;;;;;18.14;43.21;101327.19;4970347;28;20039;-68
2022/01/15 04:20:46;;;;;;;3.88;3.13;;;;;;;18.15;43.18;101330.66;4969001;28;20498;-66
2022/01/15 04:23:12;;;;;;;5.03;3.40;;;;;;;18.14;43.29;101327.19;4969484;28;20042;-67
2022/01/15 04:25:37;;;;;;;4.07;3.15;;;;;;;18.14;43.31;101329.84;4968642;28;20023;-68
2022/01/15 04:28:09;;;;;;;6.18;3.92;;;;;;;18.15;43.26;101330.66;4968540;28;20034;-69
2022/01/15 04:30:37;;;;;;;4.78;3.38;;;;;;;18.14;43.34;101326.38;4968130;28;20105;-70
2022/01/15 04:33:02;;;;;;;4.63;4.00;;;;;;;18.14;43.08;101335.09;4970262;28;20046;-67
2022/01/15 04:35:28;;;;;;;5.10;3.60;;;;;;;18.14;43.09;101331.66;4968570;28;20031;-68
2022/01/15 04:38:01;;;;;;;4.85;3.65;;;;;;;18.13;42.93;101333.47;4969638;28;20375;-67
2022/01/15 04:40:26;;;;;;;4.78;3.88;;;;;;;18.13;42.94;101332.63;4968037;28;20111;-67
2022/01/15 04:42:52;;;;;;;5.18;3.83;;;;;;;18.13;42.83;101333.47;4967372;28;20033;-70
2022/01/15 04:45:17;;;;;;;6.28;3.55;;;;;;;18.12;42.82;101336.28;4968647;28;20133;-66
2022/01/15 04:47:43;;;;;;;4.47;3.88;;;;;;;18.12;43.00;101336.28;4969506;28;20463;-69
2022/01/15 04:50:12;;;;;;;7.95;4.32;;;;;;;18.12;42.84;101329.19;4967652;28;20122;-66
2022/01/15 04:52:38;;;;;;;5.05;3.33;;;;;;;18.12;42.77;101338.91;4968130;28;20391;-66
2022/01/15 04:55:05;;;;;;;4.75;3.30;;;;;;;18.10;42.64;101331.16;4968982;28;20138;-65
2022/01/15 04:57:32;;;;;;;5.35;3.70;;;;;;;18.10;42.85;101336.44;4967998;28;20033;-68
2022/01/15 04:59:57;;;;;;;5.32;3.40;;;;;;;18.09;42.89;101339.25;4969475;28;20039;-67
2022/01/15 05:02:24;;;;;;;4.22;3.28;;;;;;;18.08;42.71;101343.69;4967808;28;20039;-67
2022/01/15 05:04:49;;;;;;;5.05;3.80;;;;;;;18.07;42.81;101339.41;4967731;28;20026;-68
2022/01/15 05:07:14;;;;;;;5.00;4.10;;;;;;;18.07;42.63;101333.31;4967919;28;20061;-66
2022/01/15 05:09:40;;;;;;;6.43;3.65;;;;;;;18.05;42.65;101338.78;4968883;28;20035;-68
2022/01/15 05:12:10;;;;;;;7.68;4.40;;;;;;;18.04;42.61;101339.75;4967437;28;20506;-68
2022/01/15 05:14:37;;;;;;;4.40;3.70;;;;;;;18.04;42.60;101347.69;4983693;28;20041;-68
2022/01/15 05:17:03;;;;;;;3.85;3.25;;;;;;;18.03;42.57;101340.75;4967114;28;20023;-66
2022/01/15 05:19:28;;;;;;;4.85;4.03;;;;;;;18.02;42.49;101344.38;4969022;28;20027;-67
2022/01/15 05:21:58;;;;;;;3.97;3.17;;;;;;;18.02;42.46;101339.13;4967563;28;20441;-67
2022/01/15 05:24:26;;;;;;;4.57;2.92;;;;;;;18.01;42.54;101348.03;4968138;28;20046;-66
2022/01/15 05:26:54;;;;;;;4.90;3.72;;;;;;;18.00;42.46;101343.75;4966268;28;20030;-66
2022/01/15 05:29:19;;;;;;;5.10;3.42;;;;;;;17.99;42.41;101347.38;4966135;28;20363;-68
2022/01/15 05:31:45;;;;;;;4.22;3.80;;;;;;;18.00;42.54;101356.09;4966031;28;20125;-67
2022/01/15 05:34:10;;;;;;;4.43;3.47;;;;;;;17.98;42.38;101352.81;4968344;28;20121;-66
2022/01/15 05:36:36;;;;;;;3.30;2.95;;;;;;;17.97;42.45;101348.53;4967257;28;20383;-67
2022/01/15 05:39:02;;;;;;;4.53;3.38;;;;;;;17.96;42.43;101360.09;4967797;28;20061;-67
2022/01/15 05:41:28;;;;;;;5.03;3.22;;;;;;;17.96;42.35;101357.47;4968809;28;20491;-68
2022/01/15 05:43:53;;;;;;;3.90;3.38;;;;;;;17.95;42.47;101359.28;4967596;28;20058;-66
2022/01/15 05:46:18;;;;;;;4.93;3.42;;;;;;;17.93;42.32;101360.44;4965452;28;20092;-65
2022/01/15 05:48:44;;;;;;;4.05;3.40;;;;;;;17.93;42.43;101363.06;4968646;28;20093;-65
2022/01/15 05:51:09;;;;;;;4.13;3.05;;;;;;;17.92;42.42;101364.88;4967699;28;20097;-68
2022/01/15 05:53:35;;;;;;;4.18;3.63;;;;;;;17.92;42.53;101364.88;4968081;28;20069;-69
2022/01/15 05:56:00;;;;;;;4.18;3.42;;;;;;;17.92;42.44;101378.06;4966474;28;20063;-68
2022/01/15 05:58:25;;;;;;;4.35;3.53;;;;;;;17.92;42.46;101383.34;4964383;28;20031;-66
2022/01/15 06:00:51;;;;;;;4.40;3.40;;;;;;;17.90;42.57;101387.97;4967161;28;20457;-67
2022/01/15 06:03:16;;;;;;;3.38;2.90;;;;;;;17.90;42.42;101380.06;4966947;28;20331;-66
2022/01/15 06:05:42;;;;;;;3.90;3.20;;;;;;;17.90;42.35;101398.50;4966842;28;20224;-69
2022/01/15 06:08:07;;;;;;;5.60;3.25;;;;;;;17.89;42.44;101404.78;4967735;28;20063;-68
2022/01/15 06:10:34;;;;;;;3.88;2.90;;;;;;;17.89;42.20;101392.41;4964087;28;20042;-69
2022/01/15 06:12:59;;;;;;;2.88;2.38;;;;;;;17.90;42.05;101398.50;4967157;28;20041;-68
2022/01/15 06:15:25;;;;;;;3.15;2.15;;;;;;;17.91;41.93;101394.88;4968014;28;20023;-69
2022/01/15 06:17:50;;;;;;;3.03;2.03;;;;;;;17.92;41.88;101399.16;4966170;28;20070;-66
2022/01/15 06:20:16;;;;;;;2.80;2.55;;;;;;;17.92;41.73;101407.06;4967521;28;20034;-69
2022/01/15 06:22:42;;;;;;;2.88;2.20;;;;;;;17.94;41.89;101399.81;4966623;28;20038;-66
2022/01/15 06:25:08;;;;;;;2.67;2.35;;;;;;;17.96;41.82;101408.34;4965936;28;20459;-68
2022/01/15 06:27:33;;;;;;;3.75;3.05;;;;;;;18.00;41.68;101403.56;4967227;28;20033;-67
2022/01/15 06:29:59;;;;;;;4.03;2.60;;;;;;;18.01;41.81;101411.28;4967719;28;20035;-69
2022/01/15 06:32:28;;;;;;;4.22;3.10;;;;;;;18.03;41.67;101414.59;4965456;28;20031;-68
2022/01/15 06:34:54;;;;;;;4.13;3.15;;;;;;;18.07;41.71;101410.63;4966507;28;20106;-65
2022/01/15 06:37:20;;;;;;;4.07;3.03;;;;;;;18.12;41.73;101415.38;4967429;28;20027;-66
2022/01/15 06:39:46;;;;;;;4.50;3.33;;;;;;;18.16;41.56;101416.69;4965057;28;20422;-67
2022/01/15 06:42:11;;;;;;;4.90;3.70;;;;;;;18.20;41.64;101413.53;4967675;28;20552;-68
2022/01/15 06:44:37;;;;;;;3.60;3.05;;;;;;;18.26;41.50;101413.84;4967208;28;20117;-67
2022/01/15 06:47:03;;;;;;;4.63;2.85;;;;;;;18.32;41.60;101413.16;4967822;28;20062;-69
2022/01/15 06:49:28;;;;;;;4.00;3.47;;;;;;;18.36;41.46;101415.28;4967763;28;20125;-67
2022/01/15 06:51:54;;;;;;;3.78;3.33;;;;;;;18.40;41.55;101411.31;4967127;28;20390;-69
2022/01/15 06:54:19;;;;;;;4.05;3.00;;;;;;;18.45;41.28;101419.50;4967330;28;20034;-69
2022/01/15 06:56:44;;;;;;;4.72;3.45;;;;;;;18.52;41.29;101419.66;4955279;28;20359;-68
2022/01/15 06:59:10;;;;;;;5.50;3.90;;;;;;;18.58;41.17;101424.22;4966767;28;20031;-64
2022/01/15 07:01:35;;;;;;;3.80;3.40;;;;;;;18.65;41.27;101424.41;4967930;28;20023;-67
2022/01/15 07:04:01;;;;;;;4.47;3.60;;;;;;;18.72;41.06;101426.16;4967802;28;20062;-67
2022/01/15 07:06:26;;;;;;;4.15;3.20;;;;;;;18.77;41.00;101423.84;4966889;28;20049;-66
2022/01/15 07:08:51;;;;;;;3.47;3.10;;;;;;;18.82;41.08;101432.06;4966345;28;20027;-69
2022/01/15 07:11:17;;;;;;;4.28;3.28;;;;;;;18.86;41.04;101433.34;4967235;28;20047;-68
2022/01/15 07:13:42;;;;;;;4.53;3.95;;;;;;;18.90;40.82;101434.63;4967586;28;20025;-70
2022/01/15 07:16:08;;;;;;;4.15;3.38;;;;;;;18.94;40.84;101444.81;4966957;28;20414;-69
2022/01/15 07:18:33;;;;;;;5.13;3.15;;;;;;;18.95;40.97;101444.66;4966668;28;20517;-66
2022/01/15 07:20:59;;;;;;;4.82;3.70;;;;;;;18.96;41.05;101433.09;4967400;28;20077;-67
2022/01/15 07:23:24;;;;;;;3.70;3.00;;;;;;;18.98;41.04;101438.19;4962756;28;20166;-67
2022/01/15 07:25:49;;;;;;;5.75;4.07;;;;;;;19.00;40.96;101444.94;4966445;28;20030;-67
2022/01/15 07:28:17;;;;;;;4.95;3.47;;;;;;;19.02;41.00;101444.78;4965641;28;20386;-68
2022/01/15 07:30:43;;;;;;;5.28;3.75;;;;;;;19.06;41.00;101446.06;4966057;28;20019;-65
2022/01/15 07:33:08;;;;;;;5.18;4.00;;;;;;;19.09;40.87;101443.06;4966872;28;20039;-67
2022/01/15 07:35:34;;;;;;;3.78;3.38;;;;;;;19.11;41.03;101451.66;4966518;28;20031;-69
2022/01/15 07:37:59;;;;;;;4.97;3.63;;;;;;;19.12;41.02;101458.56;4966435;28;20030;-67
2022/01/15 07:40:25;;;;;;;5.22;4.05;;;;;;;19.15;41.02;101453.75;4967156;28;20068;-68
2022/01/15 07:42:50;;;;;;;4.38;3.47;;;;;;;19.18;41.06;101460.50;4966097;28;20042;-66
2022/01/15 07:45:16;;;;;;;6.20;3.55;;;;;;;19.22;40.98;101462.63;4967361;28;20038;-66
2022/01/15 07:47:43;;;;;;;5.15;3.45;;;;;;;19.24;40.90;101451.88;4966575;28;20027;-70
2022/01/15 07:50:12;;;;;;;5.10;3.78;;;;;;;19.26;40.96;101455.16;4963538;28;20030;-70
2022/01/15 07:52:38;;;;;;;4.63;3.20;;;;;;;19.29;40.93;101460.09;4966167;28;20019;-66
2022/01/15 07:55:04;;;;;;;4.95;3.60;;;;;;;19.33;40.98;101455.28;4966081;28;20422;-69
2022/01/15 07:57:30;;;;;;;4.90;3.88;;;;;;;19.35;40.81;101453.28;4965436;28;20031;-67
2022/01/15 07:59:55;;;;;;;4.93;3.72;;;;;;;19.37;40.92;101460.03;4964429;28;20050;-66
2022/01/15 08:02:20;;;;;;;5.25;3.65;;;;;;;19.40;40.80;101457.00;4965801;28;20669;-68
2022/01/15 08:04:46;;;;;;;4.32;3.20;;;;;;;19.42;40.72;101459.47;4968556;28;20027;-67
2022/01/15 08:07:11;;;;;;;4.05;3.03;;;;;;;19.45;40.79;101464.41;4969309;28;20039;-71
2022/01/15 08:09:37;;;;;;;6.50;3.67;;;;;;;19.47;40.94;101462.41;4970816;28;20474;-67
2022/01/15 08:12:03;;;;;;;5.30;3.25;;;;;;;19.51;41.15;101467.19;4969620;28;20029;-68
2022/01/15 08:14:29;;;;;;;6.85;3.47;;;;;;;19.56;41.55;101469.31;4969893;28;20117;-70
2022/01/15 08:16:55;;;;;;;5.90;4.13;;;;;;;19.58;41.89;101469.94;4955804;28;20117;-70
2022/01/15 08:19:20;;;;;;;6.63;3.80;;;;;;;19.61;42.18;101468.78;4969665;28;20054;-66
2022/01/15 08:21:46;;;;;;;6.40;4.10;;;;;;;19.67;42.50;101474.16;4970316;28;20538;-67
2022/01/15 08:24:11;;;;;;;6.30;3.15;;;;;;;19.66;42.47;101471.69;4970387;28;20061;-69
2022/01/15 08:26:37;;;;;;;4.63;3.55;;;;;;;19.64;42.51;101479.00;4969412;28;20047;-69
2022/01/15 08:29:03;;;;;;;5.32;3.45;;;;;;;19.62;42.44;101473.06;4969652;28;20399;-66
2022/01/15 08:31:28;;;;;;;6.25;3.60;;;;;;;19.62;42.57;101481.00;4969835;28;20093;-70
2022/01/15 08:33:54;;;;;;;8.18;3.40;;;;;;;19.64;43.16;101469.22;4969484;28;20498;-67
2022/01/15 08:36:20;;;;;;;6.38;3.40;;;;;;;19.62;43.16;101476.53;4969771;28;20041;-67
2022/01/15 08:38:46;;;;;;;6.07;3.13;;;;;;;19.65;43.03;101476.16;4969967;28;20102;-65
2022/01/15 08:41:13;;;;;;;7.05;3.45;;;;;;;19.65;43.17;101472.69;4969137;28;20030;-67
2022/01/15 08:43:39;;;;;;;5.70;3.25;;;;;;;19.66;44.08;101477.81;4970308;28;20035;-66
2022/01/15 08:46:05;;;;;;;5.35;3.22;;;;;;;19.68;44.68;101480.28;4969812;28;20030;-70
2022/01/15 08:48:31;;;;;;;6.13;3.17;;;;;;;19.69;44.74;101482.75;4968889;28;20023;-69
2022/01/15 08:50:56;;;;;;;7.50;3.28;;;;;;;19.71;44.60;101482.56;4969954;28;20026;-69
2022/01/15 08:53:21;;;;;;;7.40;3.40;;;;;;;19.77;44.54;101487.13;4969358;28;20027;-68
2022/01/15 08:55:47;;;;;;;3.47;2.83;;;;;;;19.80;43.95;101478.84;4969003;28;20417;-68
2022/01/15 08:58:13;;;;;;;5.75;2.90;;;;;;;19.82;43.54;101477.66;4969068;28;20030;-67
2022/01/15 09:00:40;;;;;;;6.38;3.03;;;;;;;19.84;43.81;101480.94;4968977;28;20027;-68
2022/01/15 09:03:07;;;;;;;10.20;3.75;;;;;;;19.93;43.62;101478.19;4969646;28;20033;-71
2022/01/15 09:05:34;;;;;;;4.80;2.83;;;;;;;19.94;43.61;101480.66;4968459;28;20095;-70
2022/01/15 09:08:00;;;;;;;5.85;3.38;;;;;;;19.96;43.15;101486.59;4967299;28;20745;-69
2022/01/15 09:10:26;;;;;;;8.60;3.33;;;;;;;19.96;43.21;101483.94;4968889;28;20023;-66
2022/01/15 09:12:51;;;;;;;7.18;2.78;;;;;;;19.97;42.88;101477.66;4967806;28;20037;-69
2022/01/15 09:15:18;;;;;;;10.25;3.33;;;;;;;19.97;42.33;101477.66;4966026;28;20046;-68
2022/01/15 09:17:44;;;;;;;10.98;4.03;;;;;;;19.96;42.30;101483.13;4965822;28;20088;-67
2022/01/15 09:20:10;;;;;;;6.43;3.22;;;;;;;19.97;42.08;101490.88;4966719;28;20030;-68
2022/01/15 09:22:36;;;;;;;5.82;2.92;;;;;;;19.96;42.43;101485.78;4968328;28;20033;-69
2022/01/15 09:25:02;;;;;;;10.18;3.25;;;;;;;19.97;42.37;101500.63;4969745;28;20034;-68
2022/01/15 09:30:12;;;;;;;9.32;3.42;;;;;;;19.93;42.22;101500.19;4967000;28;20124;-68
2022/01/15 09:32:49;;;;;;;13.98;3.58;;;;;;;19.94;41.86;101495.72;4968699;28;20027;-67
2022/01/15 09:35:19;;;;;;;7.82;3.50;;;;;;;19.98;42.41;101507.56;4965654;28;20023;-67
2022/01/15 09:37:46;;;;;;;4.65;3.20;;;;;;;19.97;42.55;101505.94;4970580;28;20409;-66
2022/01/15 09:40:13;;;;;;;4.50;2.55;;;;;;;19.95;42.57;101511.41;4978752;28;20095;-70
2022/01/15 09:42:40;;;;;;;5.88;2.58;;;;;;;19.92;42.69;101513.59;4983190;28;20026;-69
2022/01/15 09:45:07;;;;;;;6.30;2.83;;;;;;;19.88;42.54;101515.75;4959742;28;20142;-66
2022/01/15 09:47:33;;;;;;;3.75;2.80;;;;;;;19.85;42.51;101518.75;4979314;28;20048;-67
2022/01/15 09:50:00;;;;;;;6.28;2.42;;;;;;;19.84;42.60;101514.50;4988715;28;20105;-69
2022/01/15 09:52:27;;;;;;;6.55;2.97;;;;;;;19.81;42.58;101514.88;4981314;28;20113;-70
2022/01/15 09:54:53;;;;;;;6.32;2.65;;;;;;;19.79;42.47;101515.03;4988185;28;20525;-67
2022/01/15 09:57:18;;;;;;;5.78;2.20;;;;;;;19.78;42.42;101513.41;4986919;28;20066;-69
2022/01/15 09:59:44;;;;;;;4.93;2.22;;;;;;;19.77;42.45;101505.63;4987922;28;20034;-69
2022/01/15 10:02:09;;;;;;;7.07;2.50;;;;;;;19.75;42.43;101510.28;4988298;28;20049;-67
2022/01/15 10:04:35;;;;;;;4.25;2.85;;;;;;;19.73;42.55;101514.94;4980151;28;20026;-65
2022/01/15 10:07:22;;;;;;;3.25;2.58;;;;;;;19.68;42.58;101514.66;4978074;28;20050;-66
2022/01/15 10:09:49;;;;;;;4.65;2.60;;;;;;;19.69;42.52;101514.47;4985448;28;20325;-68
2022/01/15 10:12:31;;;;;;;11.13;3.13;;;;;;;19.66;42.64;101514.00;4981463;28;20064;-67
2022/01/15 10:15:02;;;;;;;4.70;2.50;;;;;;;19.65;42.77;101512.34;4982988;28;20061;-68
2022/01/15 10:17:33;;;;;;;5.68;2.53;;;;;;;19.66;42.77;101514.81;4970789;28;20110;-68
2022/01/15 10:19:59;;;;;;;3.50;1.95;;;;;;;19.64;42.64;101510.72;4972810;28;20580;-69
2022/01/15 10:22:26;;;;;;;5.93;2.85;;;;;;;19.63;42.64;101509.88;4969019;28;20034;-68
2022/01/15 10:24:59;;;;;;;3.90;2.35;;;;;;;19.63;42.59;101507.25;4965723;28;20030;-70
2022/01/15 10:27:32;;;;;;;3.20;2.25;;;;;;;19.62;42.63;101502.97;4966118;28;20041;-70
2022/01/15 10:30:15;;;;;;;3.80;2.42;;;;;;;19.59;42.58;101505.13;4964804;28;20117;-69
2022/01/15 10:32:55;;;;;;;3.95;2.50;;;;;;;19.57;42.63;101507.13;4960855;28;20038;-68
2022/01/15 10:35:22;;;;;;;6.07;2.50;;;;;;;19.56;42.66;101490.44;4960285;28;20033;-68
2022/01/15 10:37:58;;;;;;;3.10;2.05;;;;;;;19.52;42.62;101492.63;4951612;28;20031;-67
2022/01/15 10:40:46;;;;;;;3.00;2.22;;;;;;;19.53;42.65;101488.97;4965817;28;20061;-67
2022/01/15 10:43:15;;;;;;;3.25;2.60;;;;;;;19.50;42.72;101491.13;4950965;28;20046;-70
2022/01/15 10:45:56;;;;;;;5.63;2.33;;;;;;;19.46;42.76;101482.72;4954053;28;20038;-67
2022/01/15 10:48:40;;;;;;;2.88;2.45;;;;;;;19.45;42.90;101480.25;4953147;28;20047;-67
2022/01/15 10:51:10;;;;;;;3.85;2.35;;;;;;;19.44;42.89;101479.44;4960767;28;20121;-68
2022/01/15 10:53:38;;;;;;;3.30;2.28;;;;;;;19.41;42.86;101469.22;4959174;28;20031;-66
2022/01/15 10:56:06;;;;;;;6.97;2.53;;;;;;;19.40;42.89;101470.22;4958270;28;20038;-69
2022/01/15 10:58:31;;;;;;;3.25;2.17;;;;;;;19.40;42.70;101470.22;4959019;28;20042;-68
2022/01/15 11:00:57;;;;;;;3.53;2.30;;;;;;;19.38;43.04;101466.13;4962859;28;20030;-69
2022/01/15 11:03:24;;;;;;;6.82;2.47;;;;;;;19.37;42.96;101470.63;4982164;28;20038;-68
2022/01/15 11:05:51;;;;;;;3.08;2.15;;;;;;;19.35;43.05;101464.69;4967790;28;20089;-67
2022/01/15 11:08:22;;;;;;;3.58;2.17;;;;;;;19.33;42.99;101464.03;4963759;28;20047;-68
2022/01/15 11:11:08;;;;;;;3.50;2.00;;;;;;;19.34;43.04;101460.41;4964389;28;20038;-70
2022/01/15 11:13:36;;;;;;;9.95;2.22;;;;;;;19.30;43.18;101460.94;4970237;28;20034;-68
2022/01/15 11:16:05;;;;;;;4.38;2.15;;;;;;;19.28;43.41;101458.47;4955344;28;20042;-68
2022/01/15 11:18:39;;;;;;;10.88;3.70;;;;;;;19.29;43.56;101449.53;4965379;28;20118;-67
2022/01/15 11:21:08;;;;;;;6.32;2.45;;;;;;;19.31;43.69;101452.00;4953515;28;20047;-67
2022/01/15 11:23:35;;;;;;;4.47;1.98;;;;;;;19.31;43.71;101452.81;4961859;28;20081;-67
2022/01/15 11:26:10;;;;;;;5.68;2.55;;;;;;;19.30;43.69;101451.19;4980065;28;20027;-69
2022/01/15 11:28:35;;;;;;;7.25;1.98;;;;;;;19.30;43.88;101448.53;4968807;28;20027;-69
2022/01/15 11:31:07;;;;;;;5.22;2.25;;;;;;;19.28;43.77;101445.25;4970553;28;20110;-66
2022/01/15 11:33:34;;;;;;;5.97;2.50;;;;;;;19.25;43.54;101442.97;4968968;28;20072;-69
2022/01/15 11:36:00;;;;;;;5.60;2.30;;;;;;;19.26;43.60;101434.03;4965352;28;20400;-67
2022/01/15 11:38:46;;;;;;;7.65;2.67;;;;;;;19.21;43.70;101431.09;4967842;28;20044;-67
2022/01/15 11:41:39;;;;;;;6.93;2.42;;;;;;;19.18;43.61;101436.75;4959065;28;20073;-68
2022/01/15 11:44:07;;;;;;;8.52;2.42;;;;;;;19.20;44.22;101435.56;4961793;28;20047;-67
2022/01/15 11:46:43;;;;;;;6.88;2.10;;;;;;;19.20;44.03;101425.00;4972197;28;20042;-67
2022/01/15 11:49:27;;;;;;;;;;;;;;;19.12;44.06;101426.88;4965888;28;20479;-68
2022/01/15 11:51:55;;;;;;;7.82;1.63;;;;;;;19.15;44.33;101415.97;4964595;28;20337;-69